createdAt,value
2019-05-26T00:01:37.356Z,75.82
2019-05-26T00:04:09.411Z,76.32
2019-05-26T00:06:41.389Z,76.90
2019-05-26T00:09:13.380Z,77.52
2019-05-26T00:11:46.335Z,78.09
2019-05-26T00:14:18.307Z,78.54
2019-05-26T00:16:50.260Z,78.52
2019-05-26T00:19:22.223Z,78.78
2019-05-26T00:21:54.249Z,78.75
2019-05-26T00:24:26.217Z,78.72
2019-05-26T00:26:58.189Z,78.62
2019-05-26T00:29:30.554Z,78.57
2019-05-26T00:32:02.638Z,78.46
2019-05-26T00:34:34.590Z,78.45
2019-05-26T00:37:06.586Z,78.46
2019-05-26T00:39:38.515Z,78.42
2019-05-26T00:42:10.865Z,78.50
2019-05-26T00:44:42.823Z,78.63
2019-05-26T00:47:14.891Z,78.78
2019-05-26T00:49:46.878Z,78.88
2019-05-26T00:52:18.869Z,79.00
2019-05-26T00:54:50.986Z,78.88
2019-05-26T00:57:23.203Z,79.00
2019-05-26T00:59:55.173Z,78.77
2019-05-26T01:02:27.150Z,78.65
2019-05-26T01:04:59.089Z,78.57
2019-05-26T01:07:31.052Z,78.62
2019-05-26T01:10:03.015Z,78.60
2019-05-26T01:12:35.004Z,78.60
2019-05-26T01:15:07.977Z,78.44
2019-05-26T01:17:40.238Z,78.59
2019-05-26T01:20:12.524Z,78.67
2019-05-26T01:22:44.552Z,78.57
2019-05-26T01:25:16.845Z,78.75
2019-05-26T01:27:48.807Z,78.58
2019-05-26T01:30:26.632Z,78.54
2019-05-26T01:32:59.656Z,78.77
2019-05-26T01:35:31.623Z,78.61
2019-05-26T01:38:03.766Z,78.41
2019-05-26T01:40:40.900Z,78.36
2019-05-26T01:43:13.029Z,78.25
2019-05-26T01:45:44.997Z,78.32
2019-05-26T01:48:16.944Z,78.45
2019-05-26T01:50:48.923Z,78.51
2019-05-26T01:53:21.159Z,78.56
2019-05-26T01:55:53.106Z,78.75
2019-05-26T01:58:25.117Z,78.69
2019-05-26T02:00:57.195Z,78.57
2019-05-26T02:03:29.257Z,78.55
2019-05-26T02:06:01.302Z,78.51
2019-05-26T02:08:39.306Z,78.91
2019-05-26T02:11:07.027Z,78.82
2019-05-26T02:13:39.099Z,78.60
2019-05-26T02:16:12.503Z,78.57
2019-05-26T02:18:44.517Z,78.45
2019-05-26T02:21:16.595Z,78.46
2019-05-26T02:23:48.739Z,78.80
2019-05-26T02:26:20.987Z,78.71
2019-05-26T02:28:53.051Z,78.60
2019-05-26T02:31:25.124Z,78.88
2019-05-26T02:33:57.060Z,78.98
2019-05-26T02:36:29.072Z,79.10
2019-05-26T02:39:03.318Z,79.02
2019-05-26T02:41:34.857Z,79.10
2019-05-26T02:44:07.152Z,79.14
2019-05-26T02:46:39.083Z,79.27
2019-05-26T02:49:11.195Z,79.57
2019-05-26T02:51:43.205Z,79.64
2019-05-26T02:54:15.144Z,79.82
2019-05-26T02:56:47.284Z,80.01
2019-05-26T02:59:19.312Z,80.94
2019-05-26T03:02:03.139Z,81.14
2019-05-26T03:04:25.152Z,81.25
2019-05-26T03:06:58.607Z,81.21
2019-05-26T03:09:32.220Z,81.25
2019-05-26T03:12:05.642Z,81.15
2019-05-26T03:14:40.516Z,81.12
2019-05-26T03:17:12.636Z,81.14
2019-05-26T03:19:47.472Z,80.96
2019-05-26T03:22:23.526Z,80.72
2019-05-26T03:24:56.162Z,80.40
2019-05-26T03:27:28.222Z,80.20
2019-05-26T03:30:00.693Z,79.92
2019-05-26T03:32:32.756Z,79.60
2019-05-26T03:35:05.478Z,79.44
2019-05-26T03:37:37.477Z,79.30
2019-05-26T03:40:13.079Z,79.15
2019-05-26T03:42:45.050Z,79.08
2019-05-26T03:45:31.608Z,78.77
2019-05-26T03:48:03.658Z,78.59
2019-05-26T03:50:35.702Z,78.22
2019-05-26T03:53:07.698Z,78.06
2019-05-26T03:55:40.216Z,77.81
2019-05-26T03:58:12.172Z,77.54
2019-05-26T04:00:44.153Z,77.16
2019-05-26T04:03:16.278Z,76.67
2019-05-26T04:05:48.276Z,75.86
2019-05-26T04:08:20.562Z,75.06
2019-05-26T04:10:52.617Z,74.64
2019-05-26T04:13:24.566Z,74.02
2019-05-26T04:15:56.582Z,73.13
2019-05-26T04:18:28.570Z,72.09
2019-05-26T04:21:00.644Z,71.30
2019-05-26T04:23:32.822Z,70.65
2019-05-26T04:26:04.806Z,69.67
2019-05-26T04:28:36.785Z,68.32
2019-05-26T04:31:08.753Z,67.27
2019-05-26T04:33:41.009Z,66.16
2019-05-26T04:36:13.000Z,64.59
2019-05-26T04:38:44.961Z,62.83
2019-05-26T04:41:16.960Z,61.29
2019-05-26T04:43:48.927Z,60.17
2019-05-26T04:46:21.179Z,58.63
2019-05-26T04:48:53.242Z,56.16
2019-05-26T04:51:25.200Z,53.75
2019-05-26T04:53:57.288Z,51.69
2019-05-26T04:56:30.461Z,48.74
2019-05-26T04:59:02.526Z,48.42
2019-05-26T05:01:34.529Z,47.69
2019-05-26T05:04:06.799Z,47.80
2019-05-26T05:06:40.253Z,46.55
2019-05-26T05:09:13.366Z,41.33
2019-05-26T05:11:45.346Z,37.03
2019-05-26T05:14:17.344Z,33.74
2019-05-26T05:16:49.288Z,30.62
2019-05-26T05:19:23.066Z,28.76
2019-05-26T05:21:55.042Z,26.46
2019-05-26T05:24:28.831Z,24.72
2019-05-26T05:27:01.203Z,23.17
2019-05-26T05:29:34.663Z,21.81
2019-05-26T05:32:06.882Z,20.39
2019-05-26T05:34:38.976Z,19.23
2019-05-26T05:37:11.082Z,17.39
2019-05-26T05:39:43.066Z,16.94
2019-05-26T05:42:16.905Z,15.63
2019-05-26T05:44:51.771Z,14.84
2019-05-26T05:47:24.064Z,14.08
2019-05-26T05:49:56.195Z,13.30
2019-05-26T05:52:28.221Z,12.72
2019-05-26T05:55:00.662Z,12.57
2019-05-26T05:57:32.630Z,11.93
2019-05-26T06:00:05.796Z,11.21
2019-05-26T06:02:37.849Z,11.14
2019-05-26T06:05:10.626Z,10.32
2019-05-26T06:07:42.588Z,9.60
2019-05-26T06:10:16.126Z,8.87
2019-05-26T06:12:48.129Z,8.09
2019-05-26T06:15:20.195Z,7.72
2019-05-26T06:17:52.173Z,7.03
2019-05-26T06:20:24.226Z,6.34
2019-05-26T06:22:56.197Z,6.21
2019-05-26T06:25:28.246Z,5.65
2019-05-26T06:28:00.875Z,5.14
2019-05-26T06:30:33.050Z,4.73
2019-05-26T06:33:05.013Z,4.49
2019-05-26T06:35:37.107Z,4.50
2019-05-26T06:38:10.180Z,4.02
2019-05-26T06:40:43.768Z,3.41
2019-05-26T06:43:15.742Z,2.91
2019-05-26T06:45:47.824Z,2.37
2019-05-26T06:48:19.779Z,2.06
2019-05-26T06:50:51.764Z,1.54
2019-05-26T06:53:23.768Z,1.43
2019-05-26T06:55:55.773Z,1.76
2019-05-26T07:48:04.535Z,7.27
2019-05-26T07:54:51.406Z,12.28
2019-05-26T07:57:21.750Z,10.79
2019-05-26T07:59:52.133Z,10.21
2019-05-26T08:02:22.520Z,9.87
2019-05-26T08:04:53.009Z,10.09
2019-05-26T08:07:24.457Z,9.72
2019-05-26T08:09:54.806Z,9.74
2019-05-26T08:12:29.752Z,9.90
2019-05-26T08:14:57.286Z,9.34
2019-05-26T08:17:27.673Z,8.79
2019-05-26T08:19:58.003Z,8.75
2019-05-26T08:22:28.337Z,9.29
2019-05-26T08:24:58.953Z,8.94
2019-05-26T08:27:29.705Z,8.67
2019-05-26T08:30:00.144Z,8.96
2019-05-26T08:32:30.474Z,9.21
2019-05-26T08:35:00.855Z,8.58
2019-05-26T08:37:31.229Z,8.56
2019-05-26T08:40:18.258Z,8.65
2019-05-26T08:42:49.837Z,8.81
2019-05-26T08:45:21.992Z,9.09
2019-05-26T08:47:52.982Z,8.91
2019-05-26T08:50:23.327Z,8.47
2019-05-26T08:52:53.676Z,8.65
2019-05-26T08:55:24.061Z,9.25
2019-05-26T08:57:54.393Z,10.24
2019-05-26T09:00:25.674Z,9.94
2019-05-26T09:02:56.138Z,9.61
2019-05-26T09:05:26.518Z,9.92
2019-05-26T09:07:56.836Z,10.12
2019-05-26T09:10:27.283Z,9.24
2019-05-26T09:13:01.323Z,8.78
2019-05-26T09:15:29.697Z,8.64
2019-05-26T09:18:00.027Z,8.09
2019-05-26T09:20:30.377Z,7.79
2019-05-26T09:23:00.680Z,7.26
2019-05-26T09:25:31.034Z,7.51
2019-05-26T09:28:01.476Z,7.84
2019-05-26T09:30:31.810Z,7.77
2019-05-26T09:33:02.170Z,7.80
2019-05-26T09:35:32.573Z,7.67
2019-05-26T09:38:02.924Z,7.29
2019-05-26T09:40:33.261Z,7.18
2019-05-26T09:43:15.742Z,6.91
2019-05-26T09:45:35.638Z,6.44
2019-05-26T09:48:05.969Z,6.35
2019-05-26T09:50:36.358Z,6.59
2019-05-26T09:53:06.683Z,6.63
2019-05-26T09:55:37.062Z,6.79
2019-05-26T09:58:07.451Z,7.12
2019-05-26T10:00:37.792Z,6.42
2019-05-26T10:03:08.384Z,7.54
2019-05-26T10:05:39.041Z,8.23
2019-05-26T10:08:09.725Z,8.46
2019-05-26T10:10:40.057Z,8.34
2019-05-26T10:13:10.423Z,7.48
2019-05-26T10:15:40.803Z,6.81
2019-05-26T10:18:11.185Z,6.73
2019-05-26T10:20:41.539Z,5.86
2019-05-26T10:23:11.915Z,6.45
2019-05-26T10:25:42.203Z,7.06
2019-05-26T10:28:12.542Z,8.60
2019-05-26T10:30:42.863Z,8.94
2019-05-26T10:33:13.274Z,8.49
2019-05-26T10:35:43.613Z,6.88
2019-05-26T10:38:13.949Z,6.12
2019-05-26T10:40:44.261Z,6.41
2019-05-26T10:43:14.582Z,7.20
2019-05-26T10:45:45.058Z,8.20
2019-05-26T10:48:15.411Z,8.76
2019-05-26T10:50:45.782Z,7.95
2019-05-26T10:53:16.105Z,7.28
2019-05-26T10:55:46.520Z,7.12
2019-05-26T10:58:16.920Z,7.86
2019-05-26T11:00:47.283Z,7.56
2019-05-26T11:03:17.605Z,6.99
2019-05-26T11:05:47.942Z,7.55
2019-05-26T11:08:18.306Z,7.63
2019-05-26T11:10:48.903Z,8.41
2019-05-26T11:13:19.614Z,9.58
2019-05-26T11:15:49.959Z,10.00
2019-05-26T11:18:20.386Z,10.06
2019-05-26T11:20:50.784Z,11.20
2019-05-26T11:23:21.146Z,11.79
2019-05-26T11:25:51.477Z,12.05
2019-05-26T11:28:21.837Z,12.51
2019-05-26T11:30:52.226Z,14.34
2019-05-26T11:33:22.559Z,16.05
2019-05-26T11:35:52.929Z,17.76
2019-05-26T11:38:23.328Z,18.77
2019-05-26T11:40:53.704Z,19.38
2019-05-26T11:43:24.039Z,20.81
2019-05-26T11:45:55.906Z,22.01
2019-05-26T11:48:26.398Z,23.02
2019-05-26T11:50:56.802Z,22.21
2019-05-26T11:53:27.227Z,23.19
2019-05-26T11:55:57.622Z,24.08
2019-05-26T11:58:28.290Z,24.12
2019-05-26T12:00:59.072Z,24.86
2019-05-26T12:03:29.761Z,25.17
2019-05-26T12:06:00.344Z,24.99
2019-05-26T12:08:30.839Z,25.50
2019-05-26T12:11:01.211Z,26.16
2019-05-26T12:13:31.639Z,25.00
2019-05-26T12:16:02.084Z,25.42
2019-05-26T12:18:32.552Z,24.51
2019-05-26T12:21:03.022Z,24.58
2019-05-26T12:23:33.394Z,24.49
2019-05-26T12:26:03.839Z,25.82
2019-05-26T12:28:34.198Z,26.29
2019-05-26T12:31:04.754Z,26.16
2019-05-26T12:33:35.102Z,26.61
2019-05-26T12:36:05.472Z,27.08
2019-05-26T12:38:38.743Z,27.77
2019-05-26T12:41:09.386Z,28.45
2019-05-26T12:43:39.736Z,28.48
2019-05-26T12:46:10.058Z,28.96
2019-05-26T12:48:40.401Z,28.40
2019-05-26T12:51:10.894Z,28.57
2019-05-26T12:53:41.243Z,28.28
2019-05-26T12:56:11.702Z,28.05
2019-05-26T12:58:42.103Z,27.03
2019-05-26T13:01:12.581Z,27.55
2019-05-26T13:03:42.983Z,27.90
2019-05-26T13:06:13.333Z,28.62
2019-05-26T13:08:43.663Z,29.13
2019-05-26T13:11:14.085Z,28.93
2019-05-26T13:13:44.410Z,28.96
2019-05-26T13:16:14.765Z,29.16
2019-05-26T13:18:46.155Z,28.36
2019-05-26T13:21:16.515Z,28.44
2019-05-26T13:23:46.884Z,29.18
2019-05-26T13:26:17.259Z,30.15
2019-05-26T13:28:47.754Z,30.09
2019-05-26T13:31:18.090Z,30.97
2019-05-26T13:33:48.807Z,29.93
2019-05-26T13:36:19.431Z,31.02
2019-05-26T13:38:49.782Z,30.73
2019-05-26T13:41:20.301Z,29.87
2019-05-26T13:43:50.898Z,30.37
2019-05-26T13:46:21.237Z,29.99
2019-05-26T13:48:51.635Z,29.75
2019-05-26T13:51:22.090Z,30.75
2019-05-26T13:53:52.534Z,30.68
2019-05-26T13:56:22.990Z,30.52
2019-05-26T13:58:53.450Z,30.56
2019-05-26T14:01:23.814Z,30.31
2019-05-26T14:03:54.248Z,29.73
2019-05-26T14:06:24.576Z,29.64
2019-05-26T14:08:54.993Z,29.80
2019-05-26T14:11:25.370Z,30.14
2019-05-26T14:13:55.742Z,31.06
2019-05-26T14:16:27.762Z,31.43
2019-05-26T14:18:58.689Z,32.14
2019-05-26T14:21:29.038Z,32.12
2019-05-26T14:23:59.395Z,32.60
2019-05-26T14:26:29.823Z,31.90
2019-05-26T14:29:00.099Z,32.23
2019-05-26T14:31:30.442Z,32.77
2019-05-26T14:34:00.836Z,32.71
2019-05-26T14:36:31.344Z,33.33
2019-05-26T14:39:01.669Z,33.55
2019-05-26T14:41:32.158Z,34.24
2019-05-26T14:44:02.491Z,34.29
2019-05-26T14:46:32.847Z,33.22
2019-05-26T14:49:03.205Z,33.40
2019-05-26T14:51:33.592Z,33.80
2019-05-26T14:54:03.914Z,34.26
2019-05-26T14:56:34.308Z,34.51
2019-05-26T14:59:04.672Z,34.72
2019-05-26T15:01:35.161Z,35.22
2019-05-26T15:04:05.493Z,35.43
2019-05-26T15:06:35.803Z,35.70
2019-05-26T15:09:22.409Z,35.90
2019-05-26T15:11:40.179Z,35.77
2019-05-26T15:14:10.564Z,36.14
2019-05-26T15:16:41.012Z,36.27
2019-05-26T15:19:11.418Z,36.15
2019-05-26T15:21:41.764Z,36.32
2019-05-26T15:24:12.246Z,36.09
2019-05-26T15:26:42.604Z,36.54
2019-05-26T15:29:12.958Z,35.86
2019-05-26T15:31:43.329Z,35.75
2019-05-26T15:34:13.694Z,36.22
2019-05-26T15:36:44.137Z,36.43
2019-05-26T15:39:14.515Z,36.54
2019-05-26T15:41:47.148Z,36.36
2019-05-26T15:44:17.583Z,36.41
2019-05-26T15:46:47.923Z,36.25
2019-05-26T15:49:18.290Z,35.78
2019-05-26T15:51:48.635Z,35.29
2019-05-26T15:54:19.110Z,35.64
2019-05-26T15:56:49.463Z,35.62
2019-05-26T15:59:19.850Z,35.52
2019-05-26T16:01:51.291Z,35.19
2019-05-26T16:04:21.696Z,35.07
2019-05-26T16:06:52.065Z,34.83
2019-05-26T16:09:22.551Z,34.86
2019-05-26T16:11:52.935Z,34.95
2019-05-26T16:14:23.332Z,35.30
2019-05-26T16:16:54.815Z,35.03
2019-05-26T16:19:25.193Z,34.72
2019-05-26T16:21:55.551Z,34.23
2019-05-26T16:24:25.931Z,33.77
2019-05-26T16:26:56.370Z,33.81
2019-05-26T16:29:26.897Z,34.11
2019-05-26T16:31:57.311Z,34.25
2019-05-26T16:34:27.766Z,34.19
2019-05-26T16:36:58.154Z,34.18
2019-05-26T16:39:36.832Z,34.21
2019-05-26T16:42:01.113Z,34.59
2019-05-26T16:44:31.576Z,34.89
2019-05-26T16:47:02.993Z,35.19
2019-05-26T16:49:33.378Z,35.73
2019-05-26T16:52:03.771Z,34.81
2019-05-26T16:54:34.164Z,35.28
2019-05-26T16:57:04.637Z,35.83
2019-05-26T16:59:35.107Z,35.95
2019-05-26T17:02:05.588Z,36.35
2019-05-26T17:04:36.319Z,36.55
2019-05-26T17:07:06.706Z,36.66
2019-05-26T17:09:37.026Z,36.63
2019-05-26T17:12:07.403Z,37.02
2019-05-26T17:14:37.740Z,37.54
2019-05-26T17:17:14.712Z,37.61
2019-05-26T17:19:40.268Z,37.75
2019-05-26T17:22:11.725Z,38.15
2019-05-26T17:24:42.168Z,38.53
2019-05-26T17:27:12.677Z,38.79
2019-05-26T17:29:43.160Z,37.95
2019-05-26T17:32:13.652Z,38.26
2019-05-26T17:34:44.021Z,38.22
2019-05-26T17:37:14.412Z,38.58
2019-05-26T17:39:44.749Z,38.55
2019-05-26T17:42:15.170Z,39.25
2019-05-26T17:44:45.527Z,39.86
2019-05-26T17:47:29.302Z,40.13
2019-05-26T17:49:50.511Z,40.31
2019-05-26T17:52:20.951Z,40.61
2019-05-26T17:54:54.191Z,41.12
2019-05-26T17:57:24.598Z,41.57
2019-05-26T17:59:54.999Z,41.97
2019-05-26T18:02:26.493Z,42.26
2019-05-26T18:04:56.876Z,42.49
2019-05-26T18:07:27.282Z,42.89
2019-05-26T18:09:57.780Z,43.26
2019-05-26T18:12:29.105Z,43.93
2019-05-26T18:14:59.771Z,44.58
2019-05-26T18:17:45.858Z,44.71
2019-05-26T18:20:02.370Z,45.19
2019-05-26T18:22:32.785Z,45.49
2019-05-26T18:25:03.305Z,46.13
2019-05-26T18:27:33.658Z,46.33
2019-05-26T18:30:04.156Z,46.67
2019-05-26T18:32:34.638Z,47.27
2019-05-26T18:35:05.675Z,47.28
2019-05-26T18:37:36.113Z,47.66
2019-05-26T18:40:06.978Z,48.26
2019-05-26T18:42:37.499Z,48.31
2019-05-26T18:45:08.107Z,48.55
2019-05-26T18:47:38.557Z,49.07
2019-05-26T18:50:09.528Z,49.07
2019-05-26T18:52:39.925Z,49.75
2019-05-26T18:55:10.449Z,49.83
2019-05-26T18:57:40.943Z,49.83
2019-05-26T19:00:12.093Z,50.12
2019-05-26T19:02:42.498Z,50.59
2019-05-26T19:05:13.141Z,51.11
2019-05-26T19:07:43.483Z,51.62
2019-05-26T19:10:14.059Z,51.98
2019-05-26T19:12:44.578Z,52.01
2019-05-26T19:15:15.089Z,52.31
2019-05-26T19:17:45.491Z,52.70
2019-05-26T19:20:17.287Z,52.70
2019-05-26T19:22:47.977Z,53.27
2019-05-26T19:25:18.469Z,53.31
2019-05-26T19:27:48.874Z,53.04
2019-05-26T19:30:19.226Z,52.94
2019-05-26T19:32:49.620Z,52.94
2019-05-26T19:35:20.006Z,52.68
2019-05-26T19:37:50.398Z,52.70
2019-05-26T19:40:21.056Z,52.70
2019-05-26T19:42:51.428Z,52.80
2019-05-26T19:45:21.829Z,52.96
2019-05-26T19:47:52.302Z,52.85
2019-05-26T19:50:22.689Z,53.11
2019-05-26T19:52:53.150Z,53.25
2019-05-26T19:55:23.548Z,53.48
2019-05-26T19:57:55.033Z,53.36
2019-05-26T20:00:25.659Z,53.77
2019-05-26T20:02:56.269Z,54.04
2019-05-26T20:05:26.818Z,54.31
2019-05-26T20:07:57.220Z,54.44
2019-05-26T20:10:27.609Z,54.54
2019-05-26T20:12:57.968Z,54.58
2019-05-26T20:15:28.456Z,54.88
2019-05-26T20:17:58.798Z,55.24
2019-05-26T20:20:29.197Z,55.62
2019-05-26T20:22:59.602Z,55.82
2019-05-26T20:25:29.989Z,56.12
2019-05-26T20:28:00.472Z,56.67
2019-05-26T20:30:30.859Z,56.83
2019-05-26T20:33:01.305Z,57.13
2019-05-26T20:35:31.791Z,57.51
2019-05-26T20:38:02.283Z,57.68
2019-05-26T20:40:32.628Z,57.67
2019-05-26T20:43:03.030Z,57.72
2019-05-26T20:45:33.412Z,57.53
2019-05-26T20:48:03.874Z,57.53
2019-05-26T20:50:34.264Z,57.28
2019-05-26T20:53:04.737Z,57.22
2019-05-26T20:55:35.112Z,57.24
2019-05-26T20:58:05.539Z,57.41
2019-05-26T21:00:36.141Z,57.59
2019-05-26T21:03:06.500Z,58.07
2019-05-26T21:05:36.876Z,58.55
2019-05-26T21:08:07.292Z,58.78
2019-05-26T21:10:37.842Z,59.06
2019-05-26T21:13:08.257Z,59.43
2019-05-26T21:15:38.611Z,60.05
2019-05-26T21:18:08.993Z,60.69
2019-05-26T21:20:39.510Z,60.60
2019-05-26T21:23:09.862Z,61.23
2019-05-26T21:25:40.210Z,61.98
2019-05-26T21:28:10.828Z,62.17
2019-05-26T21:30:41.174Z,62.36
2019-05-26T21:33:11.667Z,62.54
2019-05-26T21:35:42.023Z,62.77
2019-05-26T21:38:12.591Z,63.01
2019-05-26T21:40:43.015Z,63.10
2019-05-26T21:43:13.352Z,63.46
2019-05-26T21:45:43.829Z,63.93
2019-05-26T21:48:14.200Z,64.18
2019-05-26T21:50:44.596Z,64.59
2019-05-26T21:53:14.950Z,65.03
2019-05-26T21:55:45.586Z,65.27
2019-05-26T21:58:16.010Z,65.58
2019-05-26T22:00:48.194Z,66.17
2019-05-26T22:03:18.738Z,66.45
2019-05-26T22:05:49.110Z,66.84
2019-05-26T22:08:19.480Z,66.99
2019-05-26T22:10:49.849Z,67.27
2019-05-26T22:13:20.210Z,67.43
2019-05-26T22:15:50.640Z,67.50
2019-05-26T22:18:21.134Z,68.04
2019-05-26T22:20:51.555Z,68.07
2019-05-26T22:23:21.920Z,68.39
2019-05-26T22:25:52.304Z,68.48
2019-05-26T22:28:22.725Z,68.60
2019-05-26T22:30:53.133Z,68.50
2019-05-26T22:33:23.502Z,68.67
2019-05-26T22:35:53.857Z,68.50
2019-05-26T22:38:24.314Z,68.75
2019-05-26T22:40:54.710Z,68.68
2019-05-26T22:43:25.065Z,68.86
2019-05-26T22:45:55.440Z,68.72
2019-05-26T22:48:25.939Z,68.45
2019-05-26T22:50:56.347Z,68.44
2019-05-26T22:53:26.688Z,68.20
2019-05-26T22:55:57.073Z,68.38
2019-05-26T22:58:27.440Z,68.18
2019-05-26T23:00:57.772Z,68.30
2019-05-26T23:03:28.606Z,68.44
2019-05-26T23:05:58.981Z,68.28
2019-05-26T23:08:29.366Z,68.11
2019-05-26T23:10:59.766Z,68.29
2019-05-26T23:13:30.134Z,68.52
2019-05-26T23:16:00.562Z,68.48
2019-05-26T23:18:30.945Z,68.63
2019-05-26T23:21:01.313Z,68.58
2019-05-26T23:23:31.712Z,68.95
2019-05-26T23:26:02.082Z,68.98
2019-05-26T23:28:32.469Z,69.03
2019-05-26T23:31:02.847Z,69.05
2019-05-26T23:33:33.224Z,69.16
2019-05-26T23:36:03.619Z,69.21
2019-05-26T23:38:33.990Z,69.25
2019-05-26T23:41:04.366Z,69.36
2019-05-26T23:43:35.262Z,69.71
2019-05-26T23:46:05.645Z,69.83
2019-05-26T23:48:36.012Z,69.87
2019-05-26T23:51:06.390Z,69.97
2019-05-26T23:53:36.816Z,69.75
2019-05-26T23:56:07.164Z,69.57
2019-05-26T23:58:37.538Z,69.59
